sensor_id;sensor_type;location;lat;lon;timestamp;P1;P2;P0
80692;PMS5003;70055;39.436;-77.514;2023-08-08T00:00:42;2;2;
80692;PMS5003;70055;39.436;-77.514;2023-08-08T00:03:11;1;1;
80692;PMS5003;70055;39.436;-77.514;2023-08-08T00:05:39;2;2;
80692;PMS5003;70055;39.436;-77.514;2023-08-08T00:08:07;2;2;
80692;PMS5003;70055;39.436;-77.514;2023-08-08T00:10:35;3;3;
80692;PMS5003;70055;39.436;-77.514;2023-08-08T00:13:04;2;2;
80692;PMS5003;70055;39.436;-77.514;2023-08-08T00:15:32;2;2;
80692;PMS5003;70055;39.436;-77.514;2023-08-08T00:18:01;2;2;
80692;PMS5003;70055;39.436;-77.514;2023-08-08T00:20:32;2;2;
80692;PMS5003;70055;39.436;-77.514;2023-08-08T00:23:00;2;2;
80692;PMS5003;70055;39.436;-77.514;2023-08-08T00:25:27;2;2;
80692;PMS5003;70055;39.436;-77.514;2023-08-08T00:27:56;2;2;
80692;PMS5003;70055;39.436;-77.514;2023-08-08T00:30:25;2;2;
80692;PMS5003;70055;39.436;-77.514;2023-08-08T00:32:53;1;1;
80692;PMS5003;70055;39.436;-77.514;2023-08-08T00:35:22;3;3;
80692;PMS5003;70055;39.436;-77.514;2023-08-08T00:37:50;2;2;
80692;PMS5003;70055;39.436;-77.514;2023-08-08T00:40:19;1;1;
80692;PMS5003;70055;39.436;-77.514;2023-08-08T00:42:47;2;2;
80692;PMS5003;70055;39.436;-77.514;2023-08-08T00:45:15;1;1;
80692;PMS5003;70055;39.436;-77.514;2023-08-08T00:47:44;4;3;
80692;PMS5003;70055;39.436;-77.514;2023-08-08T00:50:13;1;1;
80692;PMS5003;70055;39.436;-77.514;2023-08-08T00:52:42;1;0;
80692;PMS5003;70055;39.436;-77.514;2023-08-08T00:55:11;2;1;
80692;PMS5003;70055;39.436;-77.514;2023-08-08T00:57:39;3;3;
80692;PMS5003;70055;39.436;-77.514;2023-08-08T01:00:09;0;0;
80692;PMS5003;70055;39.436;-77.514;2023-08-08T01:02:37;2;2;
80692;PMS5003;70055;39.436;-77.514;2023-08-08T01:05:05;2;2;
80692;PMS5003;70055;39.436;-77.514;2023-08-08T01:07:37;1;1;
80692;PMS5003;70055;39.436;-77.514;2023-08-08T01:10:15;1;1;
80692;PMS5003;70055;39.436;-77.514;2023-08-08T01:12:48;2;1;
80692;PMS5003;70055;39.436;-77.514;2023-08-08T01:15:19;1;1;
80692;PMS5003;70055;39.436;-77.514;2023-08-08T01:17:48;2;2;
80692;PMS5003;70055;39.436;-77.514;2023-08-08T01:20:18;2;2;
80692;PMS5003;70055;39.436;-77.514;2023-08-08T01:22:50;2;2;
80692;PMS5003;70055;39.436;-77.514;2023-08-08T01:25:25;2;2;
80692;PMS5003;70055;39.436;-77.514;2023-08-08T01:27:53;1;1;
80692;PMS5003;70055;39.436;-77.514;2023-08-08T01:30:21;1;1;
80692;PMS5003;70055;39.436;-77.514;2023-08-08T01:32:51;2;2;
80692;PMS5003;70055;39.436;-77.514;2023-08-08T01:35:21;3;3;
80692;PMS5003;70055;39.436;-77.514;2023-08-08T01:37:52;2;2;
80692;PMS5003;70055;39.436;-77.514;2023-08-08T01:40:27;4;2;
80692;PMS5003;70055;39.436;-77.514;2023-08-08T01:42:57;3;3;
80692;PMS5003;70055;39.436;-77.514;2023-08-08T01:45:27;3;3;
80692;PMS5003;70055;39.436;-77.514;2023-08-08T01:47:55;1;1;
80692;PMS5003;70055;39.436;-77.514;2023-08-08T01:50:25;2;2;
80692;PMS5003;70055;39.436;-77.514;2023-08-08T01:52:53;4;4;
80692;PMS5003;70055;39.436;-77.514;2023-08-08T01:55:21;2;2;
80692;PMS5003;70055;39.436;-77.514;2023-08-08T01:57:50;2;2;
80692;PMS5003;70055;39.436;-77.514;2023-08-08T02:00:17;2;2;
80692;PMS5003;70055;39.436;-77.514;2023-08-08T02:02:47;3;2;
80692;PMS5003;70055;39.436;-77.514;2023-08-08T02:05:15;3;3;
80692;PMS5003;70055;39.436;-77.514;2023-08-08T02:07:44;3;3;
80692;PMS5003;70055;39.436;-77.514;2023-08-08T02:10:11;3;3;
80692;PMS5003;70055;39.436;-77.514;2023-08-08T02:12:41;4;3;
80692;PMS5003;70055;39.436;-77.514;2023-08-08T02:15:09;3;3;
80692;PMS5003;70055;39.436;-77.514;2023-08-08T02:17:37;2;2;
80692;PMS5003;70055;39.436;-77.514;2023-08-08T02:20:06;4;3;
80692;PMS5003;70055;39.436;-77.514;2023-08-08T02:22:39;4;4;
80692;PMS5003;70055;39.436;-77.514;2023-08-08T02:25:08;4;4;
80692;PMS5003;70055;39.436;-77.514;2023-08-08T02:27:35;2;2;
80692;PMS5003;70055;39.436;-77.514;2023-08-08T02:30:05;2;2;
80692;PMS5003;70055;39.436;-77.514;2023-08-08T02:32:34;4;4;
80692;PMS5003;70055;39.436;-77.514;2023-08-08T02:35:03;4;4;
80692;PMS5003;70055;39.436;-77.514;2023-08-08T02:37:31;5;5;
80692;PMS5003;70055;39.436;-77.514;2023-08-08T02:39:59;7;6;
80692;PMS5003;70055;39.436;-77.514;2023-08-08T02:42:27;5;4;
80692;PMS5003;70055;39.436;-77.514;2023-08-08T02:44:55;7;7;
80692;PMS5003;70055;39.436;-77.514;2023-08-08T02:47:23;6;6;
80692;PMS5003;70055;39.436;-77.514;2023-08-08T02:49:52;6;6;
80692;PMS5003;70055;39.436;-77.514;2023-08-08T02:52:21;5;5;
80692;PMS5003;70055;39.436;-77.514;2023-08-08T02:54:49;6;6;
80692;PMS5003;70055;39.436;-77.514;2023-08-08T02:57:18;6;5;
80692;PMS5003;70055;39.436;-77.514;2023-08-08T02:59:46;7;6;
80692;PMS5003;70055;39.436;-77.514;2023-08-08T03:02:14;5;5;
80692;PMS5003;70055;39.436;-77.514;2023-08-08T03:04:42;6;6;
80692;PMS5003;70055;39.436;-77.514;2023-08-08T03:07:11;6;6;
80692;PMS5003;70055;39.436;-77.514;2023-08-08T03:09:40;5;5;
80692;PMS5003;70055;39.436;-77.514;2023-08-08T03:12:08;8;8;
80692;PMS5003;70055;39.436;-77.514;2023-08-08T03:14:36;9;8;
80692;PMS5003;70055;39.436;-77.514;2023-08-08T03:17:04;7;5;
80692;PMS5003;70055;39.436;-77.514;2023-08-08T03:19:33;7;7;
80692;PMS5003;70055;39.436;-77.514;2023-08-08T03:22:01;7;7;
80692;PMS5003;70055;39.436;-77.514;2023-08-08T03:24:29;5;5;
80692;PMS5003;70055;39.436;-77.514;2023-08-08T03:26:58;8;8;
80692;PMS5003;70055;39.436;-77.514;2023-08-08T03:29:26;6;6;
80692;PMS5003;70055;39.436;-77.514;2023-08-08T03:31:54;6;6;
80692;PMS5003;70055;39.436;-77.514;2023-08-08T03:34:22;7;7;
80692;PMS5003;70055;39.436;-77.514;2023-08-08T03:36:50;6;6;
80692;PMS5003;70055;39.436;-77.514;2023-08-08T03:39:17;7;6;
80692;PMS5003;70055;39.436;-77.514;2023-08-08T03:41:45;8;8;
80692;PMS5003;70055;39.436;-77.514;2023-08-08T03:44:14;7;7;
80692;PMS5003;70055;39.436;-77.514;2023-08-08T03:46:42;9;9;
80692;PMS5003;70055;39.436;-77.514;2023-08-08T03:49:09;6;5;
80692;PMS5003;70055;39.436;-77.514;2023-08-08T03:51:37;5;5;
80692;PMS5003;70055;39.436;-77.514;2023-08-08T03:54:05;7;7;
80692;PMS5003;70055;39.436;-77.514;2023-08-08T03:56:34;8;8;
80692;PMS5003;70055;39.436;-77.514;2023-08-08T03:59:01;7;7;
80692;PMS5003;70055;39.436;-77.514;2023-08-08T04:01:30;7;7;
80692;PMS5003;70055;39.436;-77.514;2023-08-08T04:03:58;7;7;
80692;PMS5003;70055;39.436;-77.514;2023-08-08T04:06:25;7;7;
80692;PMS5003;70055;39.436;-77.514;2023-08-08T04:08:54;7;7;
80692;PMS5003;70055;39.436;-77.514;2023-08-08T04:11:23;6;6;
80692;PMS5003;70055;39.436;-77.514;2023-08-08T04:13:50;7;7;
80692;PMS5003;70055;39.436;-77.514;2023-08-08T04:16:19;7;7;
80692;PMS5003;70055;39.436;-77.514;2023-08-08T04:18:47;8;8;
80692;PMS5003;70055;39.436;-77.514;2023-08-08T04:21:15;9;9;
80692;PMS5003;70055;39.436;-77.514;2023-08-08T04:23:42;8;8;
80692;PMS5003;70055;39.436;-77.514;2023-08-08T04:26:11;7;7;
80692;PMS5003;70055;39.436;-77.514;2023-08-08T04:28:38;7;7;
80692;PMS5003;70055;39.436;-77.514;2023-08-08T04:31:06;10;10;
80692;PMS5003;70055;39.436;-77.514;2023-08-08T04:33:34;6;6;
80692;PMS5003;70055;39.436;-77.514;2023-08-08T04:36:02;8;8;
80692;PMS5003;70055;39.436;-77.514;2023-08-08T04:38:31;10;10;
80692;PMS5003;70055;39.436;-77.514;2023-08-08T04:40:58;9;9;
80692;PMS5003;70055;39.436;-77.514;2023-08-08T04:43:26;8;8;
80692;PMS5003;70055;39.436;-77.514;2023-08-08T04:45:54;8;8;
80692;PMS5003;70055;39.436;-77.514;2023-08-08T04:48:22;9;9;
80692;PMS5003;70055;39.436;-77.514;2023-08-08T04:50:49;9;9;
80692;PMS5003;70055;39.436;-77.514;2023-08-08T04:53:17;9;9;
80692;PMS5003;70055;39.436;-77.514;2023-08-08T04:55:45;8;8;
80692;PMS5003;70055;39.436;-77.514;2023-08-08T04:58:13;8;8;
80692;PMS5003;70055;39.436;-77.514;2023-08-08T05:00:41;9;8;
80692;PMS5003;70055;39.436;-77.514;2023-08-08T05:03:08;9;9;
80692;PMS5003;70055;39.436;-77.514;2023-08-08T05:05:36;8;7;
80692;PMS5003;70055;39.436;-77.514;2023-08-08T05:08:05;9;8;
80692;PMS5003;70055;39.436;-77.514;2023-08-08T05:10:33;10;10;
80692;PMS5003;70055;39.436;-77.514;2023-08-08T05:13:01;9;9;
80692;PMS5003;70055;39.436;-77.514;2023-08-08T05:15:29;9;9;
80692;PMS5003;70055;39.436;-77.514;2023-08-08T05:17:57;10;9;
80692;PMS5003;70055;39.436;-77.514;2023-08-08T05:20:25;11;11;
80692;PMS5003;70055;39.436;-77.514;2023-08-08T05:22:53;9;9;
80692;PMS5003;70055;39.436;-77.514;2023-08-08T05:25:21;11;10;
80692;PMS5003;70055;39.436;-77.514;2023-08-08T05:27:49;8;8;
80692;PMS5003;70055;39.436;-77.514;2023-08-08T05:30:17;9;9;
80692;PMS5003;70055;39.436;-77.514;2023-08-08T05:32:45;12;11;
80692;PMS5003;70055;39.436;-77.514;2023-08-08T05:35:14;9;9;
80692;PMS5003;70055;39.436;-77.514;2023-08-08T05:37:42;8;8;
80692;PMS5003;70055;39.436;-77.514;2023-08-08T05:40:10;8;8;
80692;PMS5003;70055;39.436;-77.514;2023-08-08T05:42:39;12;11;
80692;PMS5003;70055;39.436;-77.514;2023-08-08T05:45:07;9;9;
80692;PMS5003;70055;39.436;-77.514;2023-08-08T05:47:35;10;10;
80692;PMS5003;70055;39.436;-77.514;2023-08-08T05:50:03;9;9;
80692;PMS5003;70055;39.436;-77.514;2023-08-08T05:52:33;8;8;
80692;PMS5003;70055;39.436;-77.514;2023-08-08T05:55:01;9;9;
80692;PMS5003;70055;39.436;-77.514;2023-08-08T05:57:28;10;10;
80692;PMS5003;70055;39.436;-77.514;2023-08-08T05:59:56;10;10;
80692;PMS5003;70055;39.436;-77.514;2023-08-08T06:02:24;11;10;
80692;PMS5003;70055;39.436;-77.514;2023-08-08T06:04:52;12;12;
80692;PMS5003;70055;39.436;-77.514;2023-08-08T06:07:20;9;9;
80692;PMS5003;70055;39.436;-77.514;2023-08-08T06:09:48;9;9;
80692;PMS5003;70055;39.436;-77.514;2023-08-08T06:12:16;10;10;
80692;PMS5003;70055;39.436;-77.514;2023-08-08T06:14:44;9;9;
80692;PMS5003;70055;39.436;-77.514;2023-08-08T06:17:12;13;12;
80692;PMS5003;70055;39.436;-77.514;2023-08-08T06:19:40;14;13;
80692;PMS5003;70055;39.436;-77.514;2023-08-08T06:22:07;10;10;
80692;PMS5003;70055;39.436;-77.514;2023-08-08T06:24:35;12;12;
80692;PMS5003;70055;39.436;-77.514;2023-08-08T06:27:03;11;11;
80692;PMS5003;70055;39.436;-77.514;2023-08-08T06:29:31;10;9;
80692;PMS5003;70055;39.436;-77.514;2023-08-08T06:31:59;10;9;
80692;PMS5003;70055;39.436;-77.514;2023-08-08T06:34:27;12;11;
80692;PMS5003;70055;39.436;-77.514;2023-08-08T06:36:55;12;12;
80692;PMS5003;70055;39.436;-77.514;2023-08-08T06:39:23;14;13;
80692;PMS5003;70055;39.436;-77.514;2023-08-08T06:41:51;14;14;
80692;PMS5003;70055;39.436;-77.514;2023-08-08T06:44:20;15;14;
80692;PMS5003;70055;39.436;-77.514;2023-08-08T06:46:49;14;13;
80692;PMS5003;70055;39.436;-77.514;2023-08-08T06:49:17;14;14;
80692;PMS5003;70055;39.436;-77.514;2023-08-08T06:51:46;15;15;
80692;PMS5003;70055;39.436;-77.514;2023-08-08T06:54:13;13;13;
80692;PMS5003;70055;39.436;-77.514;2023-08-08T06:56:41;15;14;
80692;PMS5003;70055;39.436;-77.514;2023-08-08T06:59:09;15;13;
80692;PMS5003;70055;39.436;-77.514;2023-08-08T07:01:37;12;12;
80692;PMS5003;70055;39.436;-77.514;2023-08-08T07:04:05;16;16;
80692;PMS5003;70055;39.436;-77.514;2023-08-08T07:06:33;15;14;
80692;PMS5003;70055;39.436;-77.514;2023-08-08T07:09:00;15;14;
80692;PMS5003;70055;39.436;-77.514;2023-08-08T07:11:29;14;13;
80692;PMS5003;70055;39.436;-77.514;2023-08-08T07:13:56;13;13;
80692;PMS5003;70055;39.436;-77.514;2023-08-08T07:16:24;13;12;
80692;PMS5003;70055;39.436;-77.514;2023-08-08T07:18:52;15;15;
80692;PMS5003;70055;39.436;-77.514;2023-08-08T07:21:20;11;11;
80692;PMS5003;70055;39.436;-77.514;2023-08-08T07:23:48;13;12;
80692;PMS5003;70055;39.436;-77.514;2023-08-08T07:26:16;15;14;
80692;PMS5003;70055;39.436;-77.514;2023-08-08T07:28:44;15;14;
80692;PMS5003;70055;39.436;-77.514;2023-08-08T07:31:11;14;14;
80692;PMS5003;70055;39.436;-77.514;2023-08-08T07:33:39;15;14;
80692;PMS5003;70055;39.436;-77.514;2023-08-08T07:36:07;13;13;
80692;PMS5003;70055;39.436;-77.514;2023-08-08T07:38:34;12;12;
80692;PMS5003;70055;39.436;-77.514;2023-08-08T07:41:02;13;13;
80692;PMS5003;70055;39.436;-77.514;2023-08-08T07:43:30;14;14;
80692;PMS5003;70055;39.436;-77.514;2023-08-08T07:45:58;14;14;
80692;PMS5003;70055;39.436;-77.514;2023-08-08T07:48:27;14;14;
80692;PMS5003;70055;39.436;-77.514;2023-08-08T07:50:55;14;14;
80692;PMS5003;70055;39.436;-77.514;2023-08-08T07:53:23;11;11;
80692;PMS5003;70055;39.436;-77.514;2023-08-08T07:55:51;13;12;
80692;PMS5003;70055;39.436;-77.514;2023-08-08T07:58:19;14;12;
80692;PMS5003;70055;39.436;-77.514;2023-08-08T08:00:46;11;10;
80692;PMS5003;70055;39.436;-77.514;2023-08-08T08:03:14;9;9;
80692;PMS5003;70055;39.436;-77.514;2023-08-08T08:05:42;10;10;
80692;PMS5003;70055;39.436;-77.514;2023-08-08T08:08:10;10;10;
80692;PMS5003;70055;39.436;-77.514;2023-08-08T08:10:38;6;6;
80692;PMS5003;70055;39.436;-77.514;2023-08-08T08:13:05;7;7;
80692;PMS5003;70055;39.436;-77.514;2023-08-08T08:15:33;5;5;
80692;PMS5003;70055;39.436;-77.514;2023-08-08T08:18:01;9;9;
80692;PMS5003;70055;39.436;-77.514;2023-08-08T08:20:29;4;4;
80692;PMS5003;70055;39.436;-77.514;2023-08-08T08:22:57;6;6;
80692;PMS5003;70055;39.436;-77.514;2023-08-08T08:25:25;6;6;
80692;PMS5003;70055;39.436;-77.514;2023-08-08T08:27:53;4;4;
80692;PMS5003;70055;39.436;-77.514;2023-08-08T08:30:21;5;5;
80692;PMS5003;70055;39.436;-77.514;2023-08-08T08:32:50;7;7;
80692;PMS5003;70055;39.436;-77.514;2023-08-08T08:35:17;4;4;
80692;PMS5003;70055;39.436;-77.514;2023-08-08T08:37:45;7;7;
80692;PMS5003;70055;39.436;-77.514;2023-08-08T08:40:14;5;5;
80692;PMS5003;70055;39.436;-77.514;2023-08-08T08:42:42;6;6;
80692;PMS5003;70055;39.436;-77.514;2023-08-08T08:45:11;4;4;
80692;PMS5003;70055;39.436;-77.514;2023-08-08T08:47:40;5;5;
80692;PMS5003;70055;39.436;-77.514;2023-08-08T08:50:14;6;6;
80692;PMS5003;70055;39.436;-77.514;2023-08-08T08:52:43;7;6;
80692;PMS5003;70055;39.436;-77.514;2023-08-08T08:55:11;5;5;
80692;PMS5003;70055;39.436;-77.514;2023-08-08T08:57:39;5;5;
80692;PMS5003;70055;39.436;-77.514;2023-08-08T09:00:08;5;5;
80692;PMS5003;70055;39.436;-77.514;2023-08-08T09:02:37;6;6;
80692;PMS5003;70055;39.436;-77.514;2023-08-08T09:05:05;6;6;
80692;PMS5003;70055;39.436;-77.514;2023-08-08T09:07:33;5;5;
80692;PMS5003;70055;39.436;-77.514;2023-08-08T09:10:03;7;7;
80692;PMS5003;70055;39.436;-77.514;2023-08-08T09:12:33;6;6;
80692;PMS5003;70055;39.436;-77.514;2023-08-08T09:15:01;5;5;
80692;PMS5003;70055;39.436;-77.514;2023-08-08T09:17:30;6;5;
80692;PMS5003;70055;39.436;-77.514;2023-08-08T09:19:57;5;5;
80692;PMS5003;70055;39.436;-77.514;2023-08-08T09:22:25;5;5;
80692;PMS5003;70055;39.436;-77.514;2023-08-08T09:24:53;5;5;
80692;PMS5003;70055;39.436;-77.514;2023-08-08T09:27:21;5;5;
80692;PMS5003;70055;39.436;-77.514;2023-08-08T09:29:49;6;6;
80692;PMS5003;70055;39.436;-77.514;2023-08-08T09:32:18;6;6;
80692;PMS5003;70055;39.436;-77.514;2023-08-08T09:34:46;5;5;
80692;PMS5003;70055;39.436;-77.514;2023-08-08T09:37:14;4;4;
80692;PMS5003;70055;39.436;-77.514;2023-08-08T09:39:42;4;4;
80692;PMS5003;70055;39.436;-77.514;2023-08-08T09:42:10;6;6;
80692;PMS5003;70055;39.436;-77.514;2023-08-08T09:44:40;7;7;
80692;PMS5003;70055;39.436;-77.514;2023-08-08T09:47:12;4;4;
80692;PMS5003;70055;39.436;-77.514;2023-08-08T09:49:41;5;5;
80692;PMS5003;70055;39.436;-77.514;2023-08-08T09:52:09;5;5;
80692;PMS5003;70055;39.436;-77.514;2023-08-08T09:54:38;4;4;
80692;PMS5003;70055;39.436;-77.514;2023-08-08T09:57:07;4;4;
80692;PMS5003;70055;39.436;-77.514;2023-08-08T09:59:37;4;4;
80692;PMS5003;70055;39.436;-77.514;2023-08-08T10:02:06;4;4;
80692;PMS5003;70055;39.436;-77.514;2023-08-08T10:04:39;3;3;
80692;PMS5003;70055;39.436;-77.514;2023-08-08T10:07:08;2;2;
80692;PMS5003;70055;39.436;-77.514;2023-08-08T10:09:35;4;4;
80692;PMS5003;70055;39.436;-77.514;2023-08-08T10:12:04;6;5;
80692;PMS5003;70055;39.436;-77.514;2023-08-08T10:14:35;4;3;
80692;PMS5003;70055;39.436;-77.514;2023-08-08T10:17:04;4;3;
80692;PMS5003;70055;39.436;-77.514;2023-08-08T10:19:33;4;4;
80692;PMS5003;70055;39.436;-77.514;2023-08-08T10:22:03;5;5;
80692;PMS5003;70055;39.436;-77.514;2023-08-08T10:24:34;3;3;
80692;PMS5003;70055;39.436;-77.514;2023-08-08T10:27:03;4;4;
80692;PMS5003;70055;39.436;-77.514;2023-08-08T10:29:32;4;4;
80692;PMS5003;70055;39.436;-77.514;2023-08-08T10:32:05;3;3;
80692;PMS5003;70055;39.436;-77.514;2023-08-08T10:34:37;2;2;
80692;PMS5003;70055;39.436;-77.514;2023-08-08T10:37:09;4;4;
80692;PMS5003;70055;39.436;-77.514;2023-08-08T10:39:38;2;2;
80692;PMS5003;70055;39.436;-77.514;2023-08-08T10:42:18;4;4;
80692;PMS5003;70055;39.436;-77.514;2023-08-08T10:44:51;3;3;
80692;PMS5003;70055;39.436;-77.514;2023-08-08T10:47:21;2;2;
80692;PMS5003;70055;39.436;-77.514;2023-08-08T10:49:57;4;4;
80692;PMS5003;70055;39.436;-77.514;2023-08-08T10:52:26;3;3;
80692;PMS5003;70055;39.436;-77.514;2023-08-08T10:54:53;4;4;
80692;PMS5003;70055;39.436;-77.514;2023-08-08T10:57:24;3;3;
80692;PMS5003;70055;39.436;-77.514;2023-08-08T10:59:53;5;5;
80692;PMS5003;70055;39.436;-77.514;2023-08-08T11:02:22;4;4;
80692;PMS5003;70055;39.436;-77.514;2023-08-08T11:04:51;6;6;
80692;PMS5003;70055;39.436;-77.514;2023-08-08T11:07:21;4;4;
80692;PMS5003;70055;39.436;-77.514;2023-08-08T11:09:54;3;3;
80692;PMS5003;70055;39.436;-77.514;2023-08-08T11:12:23;5;5;
80692;PMS5003;70055;39.436;-77.514;2023-08-08T11:14:51;4;4;
80692;PMS5003;70055;39.436;-77.514;2023-08-08T11:17:20;4;4;
80692;PMS5003;70055;39.436;-77.514;2023-08-08T11:19:49;5;5;
80692;PMS5003;70055;39.436;-77.514;2023-08-08T11:22:17;8;7;
80692;PMS5003;70055;39.436;-77.514;2023-08-08T11:24:48;3;3;
80692;PMS5003;70055;39.436;-77.514;2023-08-08T11:27:17;4;4;
80692;PMS5003;70055;39.436;-77.514;2023-08-08T11:29:49;6;6;
80692;PMS5003;70055;39.436;-77.514;2023-08-08T11:32:17;6;6;
80692;PMS5003;70055;39.436;-77.514;2023-08-08T11:34:46;4;4;
80692;PMS5003;70055;39.436;-77.514;2023-08-08T11:37:14;4;4;
80692;PMS5003;70055;39.436;-77.514;2023-08-08T11:39:43;5;5;
80692;PMS5003;70055;39.436;-77.514;2023-08-08T11:42:11;7;7;
80692;PMS5003;70055;39.436;-77.514;2023-08-08T11:44:38;6;6;
80692;PMS5003;70055;39.436;-77.514;2023-08-08T11:47:07;6;6;
80692;PMS5003;70055;39.436;-77.514;2023-08-08T11:49:39;7;6;
80692;PMS5003;70055;39.436;-77.514;2023-08-08T11:52:08;5;5;
80692;PMS5003;70055;39.436;-77.514;2023-08-08T11:54:37;5;5;
80692;PMS5003;70055;39.436;-77.514;2023-08-08T11:57:06;6;6;
80692;PMS5003;70055;39.436;-77.514;2023-08-08T11:59:36;7;7;
80692;PMS5003;70055;39.436;-77.514;2023-08-08T12:02:04;6;6;
80692;PMS5003;70055;39.436;-77.514;2023-08-08T12:04:32;7;7;
80692;PMS5003;70055;39.436;-77.514;2023-08-08T12:07:02;7;7;
80692;PMS5003;70055;39.436;-77.514;2023-08-08T12:09:31;4;4;
80692;PMS5003;70055;39.436;-77.514;2023-08-08T12:11:59;6;6;
80692;PMS5003;70055;39.436;-77.514;2023-08-08T12:14:28;4;4;
80692;PMS5003;70055;39.436;-77.514;2023-08-08T12:16:57;7;7;
80692;PMS5003;70055;39.436;-77.514;2023-08-08T12:19:25;6;6;
80692;PMS5003;70055;39.436;-77.514;2023-08-08T12:21:53;8;8;
80692;PMS5003;70055;39.436;-77.514;2023-08-08T12:24:20;6;6;
80692;PMS5003;70055;39.436;-77.514;2023-08-08T12:26:48;8;8;
80692;PMS5003;70055;39.436;-77.514;2023-08-08T12:29:17;8;8;
80692;PMS5003;70055;39.436;-77.514;2023-08-08T12:31:46;6;6;
80692;PMS5003;70055;39.436;-77.514;2023-08-08T12:34:14;7;7;
80692;PMS5003;70055;39.436;-77.514;2023-08-08T12:36:43;8;8;
80692;PMS5003;70055;39.436;-77.514;2023-08-08T12:39:11;6;6;
80692;PMS5003;70055;39.436;-77.514;2023-08-08T12:41:39;6;6;
80692;PMS5003;70055;39.436;-77.514;2023-08-08T12:44:07;6;6;
80692;PMS5003;70055;39.436;-77.514;2023-08-08T12:46:35;7;7;
80692;PMS5003;70055;39.436;-77.514;2023-08-08T12:49:03;7;6;
80692;PMS5003;70055;39.436;-77.514;2023-08-08T12:51:32;8;8;
80692;PMS5003;70055;39.436;-77.514;2023-08-08T12:54:00;7;7;
80692;PMS5003;70055;39.436;-77.514;2023-08-08T12:56:28;9;8;
80692;PMS5003;70055;39.436;-77.514;2023-08-08T12:58:56;8;8;
80692;PMS5003;70055;39.436;-77.514;2023-08-08T13:01:25;8;8;
80692;PMS5003;70055;39.436;-77.514;2023-08-08T13:03:53;6;6;
80692;PMS5003;70055;39.436;-77.514;2023-08-08T13:06:22;7;7;
80692;PMS5003;70055;39.436;-77.514;2023-08-08T13:08:51;6;6;
80692;PMS5003;70055;39.436;-77.514;2023-08-08T13:11:20;7;7;
80692;PMS5003;70055;39.436;-77.514;2023-08-08T13:13:48;8;8;
80692;PMS5003;70055;39.436;-77.514;2023-08-08T13:16:16;9;8;
80692;PMS5003;70055;39.436;-77.514;2023-08-08T13:18:44;9;9;
80692;PMS5003;70055;39.436;-77.514;2023-08-08T13:21:12;8;8;
80692;PMS5003;70055;39.436;-77.514;2023-08-08T13:23:40;8;8;
80692;PMS5003;70055;39.436;-77.514;2023-08-08T13:26:09;8;8;
80692;PMS5003;70055;39.436;-77.514;2023-08-08T13:28:37;8;8;
80692;PMS5003;70055;39.436;-77.514;2023-08-08T13:31:05;6;6;
80692;PMS5003;70055;39.436;-77.514;2023-08-08T13:33:33;9;9;
80692;PMS5003;70055;39.436;-77.514;2023-08-08T13:36:02;10;9;
80692;PMS5003;70055;39.436;-77.514;2023-08-08T13:38:32;9;9;
80692;PMS5003;70055;39.436;-77.514;2023-08-08T13:41:00;9;8;
80692;PMS5003;70055;39.436;-77.514;2023-08-08T13:43:28;7;7;
80692;PMS5003;70055;39.436;-77.514;2023-08-08T13:45:57;9;9;
80692;PMS5003;70055;39.436;-77.514;2023-08-08T13:48:25;9;9;
80692;PMS5003;70055;39.436;-77.514;2023-08-08T13:50:53;8;8;
80692;PMS5003;70055;39.436;-77.514;2023-08-08T13:53:21;10;9;
80692;PMS5003;70055;39.436;-77.514;2023-08-08T13:55:50;8;8;
80692;PMS5003;70055;39.436;-77.514;2023-08-08T13:58:18;9;7;
80692;PMS5003;70055;39.436;-77.514;2023-08-08T14:00:46;10;10;
80692;PMS5003;70055;39.436;-77.514;2023-08-08T14:03:13;7;6;
80692;PMS5003;70055;39.436;-77.514;2023-08-08T14:05:42;8;8;
80692;PMS5003;70055;39.436;-77.514;2023-08-08T14:08:10;8;8;
80692;PMS5003;70055;39.436;-77.514;2023-08-08T14:10:38;10;10;
80692;PMS5003;70055;39.436;-77.514;2023-08-08T14:13:07;10;9;
80692;PMS5003;70055;39.436;-77.514;2023-08-08T14:15:35;8;8;
80692;PMS5003;70055;39.436;-77.514;2023-08-08T14:18:04;10;9;
80692;PMS5003;70055;39.436;-77.514;2023-08-08T14:20:34;8;8;
80692;PMS5003;70055;39.436;-77.514;2023-08-08T14:23:02;9;9;
80692;PMS5003;70055;39.436;-77.514;2023-08-08T14:25:30;11;10;
80692;PMS5003;70055;39.436;-77.514;2023-08-08T14:27:58;9;8;
80692;PMS5003;70055;39.436;-77.514;2023-08-08T14:30:26;11;10;
80692;PMS5003;70055;39.436;-77.514;2023-08-08T14:32:53;8;8;
80692;PMS5003;70055;39.436;-77.514;2023-08-08T14:35:21;9;9;
80692;PMS5003;70055;39.436;-77.514;2023-08-08T14:37:50;8;8;
80692;PMS5003;70055;39.436;-77.514;2023-08-08T14:40:18;12;12;
80692;PMS5003;70055;39.436;-77.514;2023-08-08T14:42:47;9;9;
80692;PMS5003;70055;39.436;-77.514;2023-08-08T14:45:15;10;10;
80692;PMS5003;70055;39.436;-77.514;2023-08-08T14:47:44;11;10;
80692;PMS5003;70055;39.436;-77.514;2023-08-08T14:50:13;11;11;
80692;PMS5003;70055;39.436;-77.514;2023-08-08T14:52:42;10;10;
80692;PMS5003;70055;39.436;-77.514;2023-08-08T14:55:10;9;9;
80692;PMS5003;70055;39.436;-77.514;2023-08-08T14:57:38;10;9;
80692;PMS5003;70055;39.436;-77.514;2023-08-08T15:00:07;9;9;
80692;PMS5003;70055;39.436;-77.514;2023-08-08T15:02:37;9;9;
80692;PMS5003;70055;39.436;-77.514;2023-08-08T15:05:05;12;10;
80692;PMS5003;70055;39.436;-77.514;2023-08-08T15:07:34;8;8;
80692;PMS5003;70055;39.436;-77.514;2023-08-08T15:10:02;10;9;
80692;PMS5003;70055;39.436;-77.514;2023-08-08T15:12:31;12;12;
80692;PMS5003;70055;39.436;-77.514;2023-08-08T15:14:58;11;11;
80692;PMS5003;70055;39.436;-77.514;2023-08-08T15:17:27;10;10;
80692;PMS5003;70055;39.436;-77.514;2023-08-08T15:19:57;10;10;
80692;PMS5003;70055;39.436;-77.514;2023-08-08T15:22:25;11;11;
80692;PMS5003;70055;39.436;-77.514;2023-08-08T15:24:53;14;13;
80692;PMS5003;70055;39.436;-77.514;2023-08-08T15:27:21;8;8;
80692;PMS5003;70055;39.436;-77.514;2023-08-08T15:29:50;12;12;
80692;PMS5003;70055;39.436;-77.514;2023-08-08T15:32:19;11;11;
80692;PMS5003;70055;39.436;-77.514;2023-08-08T15:34:48;12;12;
80692;PMS5003;70055;39.436;-77.514;2023-08-08T15:37:17;10;10;
80692;PMS5003;70055;39.436;-77.514;2023-08-08T15:39:44;10;10;
80692;PMS5003;70055;39.436;-77.514;2023-08-08T15:42:13;12;12;
80692;PMS5003;70055;39.436;-77.514;2023-08-08T15:44:40;13;12;
80692;PMS5003;70055;39.436;-77.514;2023-08-08T15:47:09;14;14;
80692;PMS5003;70055;39.436;-77.514;2023-08-08T15:49:37;13;12;
80692;PMS5003;70055;39.436;-77.514;2023-08-08T15:52:05;13;13;
80692;PMS5003;70055;39.436;-77.514;2023-08-08T15:54:34;13;13;
80692;PMS5003;70055;39.436;-77.514;2023-08-08T15:57:01;10;10;
80692;PMS5003;70055;39.436;-77.514;2023-08-08T15:59:31;11;11;
80692;PMS5003;70055;39.436;-77.514;2023-08-08T16:01:59;13;12;
80692;PMS5003;70055;39.436;-77.514;2023-08-08T16:04:26;12;12;
80692;PMS5003;70055;39.436;-77.514;2023-08-08T16:06:55;11;10;
80692;PMS5003;70055;39.436;-77.514;2023-08-08T16:09:24;15;15;
80692;PMS5003;70055;39.436;-77.514;2023-08-08T16:11:53;12;12;
80692;PMS5003;70055;39.436;-77.514;2023-08-08T16:14:23;13;13;
80692;PMS5003;70055;39.436;-77.514;2023-08-08T16:16:51;12;12;